Time;durP1;ratioP1;P1;durP2;ratioP2;P2;SDS_P1;SDS_P2;PMS_P1;PMS_P2;Temp;Humidity;BMP_temperature;BMP_pressure;BME280_temperature;BME280_humidity;BME280_pressure;Samples;Min_cycle;Max_cycle;Signal;HPM_P1;HPM_P2
2021/10/01 00:00:18;;;;;;;5.80;1.40;;;;;;;13.61;55.18;100209.13;6096377;23;20026;-80
2021/10/01 00:02:45;;;;;;;3.70;1.52;;;;;;;13.66;54.79;100203.53;6096139;23;20119;-80
2021/10/01 00:05:12;;;;;;;4.45;1.70;;;;;;;13.67;54.84;100203.47;6095716;23;20031;-80
2021/10/01 00:07:39;;;;;;;5.50;1.05;;;;;;;13.68;54.63;100207.78;6095592;23;20065;-79
2021/10/01 00:10:15;;;;;;;3.45;1.30;;;;;;;13.66;55.29;100199.13;6096509;23;20697;-80
2021/10/01 00:12:42;;;;;;;4.65;1.40;;;;;;;13.68;54.69;100194.56;6096557;23;20028;-79
2021/10/01 00:15:09;;;;;;;2.05;1.10;;;;;;;13.69;54.91;100187.50;6096222;23;20106;-80
2021/10/01 00:17:36;;;;;;;3.38;1.50;;;;;;;13.68;54.77;100180.47;6096744;23;20097;-80
2021/10/01 00:20:03;;;;;;;3.47;1.00;;;;;;;13.68;54.75;100178.69;6096595;23;20052;-80
2021/10/01 00:22:30;;;;;;;5.50;1.42;;;;;;;13.69;54.86;100182.19;6095870;23;20109;-80
2021/10/01 00:24:58;;;;;;;6.55;1.45;;;;;;;13.68;54.80;100186.63;6096291;23;20101;-80
2021/10/01 00:27:25;;;;;;;2.42;1.10;;;;;;;13.66;54.88;100177.97;6096100;23;20350;-79
2021/10/01 00:29:52;;;;;;;4.18;1.30;;;;;;;13.65;54.67;100170.94;6095682;23;20022;-80
2021/10/01 00:32:22;;;;;;;4.60;1.50;;;;;;;13.63;55.04;100166.69;6095740;23;20022;-80
2021/10/01 00:34:50;;;;;;;3.08;1.05;;;;;;;13.63;54.66;100166.69;6096044;23;20334;-80
2021/10/01 00:37:25;;;;;;;3.17;0.90;;;;;;;13.58;55.33;100159.06;6096129;23;20443;-80
2021/10/01 00:39:53;;;;;;;2.83;1.20;;;;;;;13.59;54.78;100166.06;6095719;23;20022;-80
2021/10/01 00:42:23;;;;;;;3.40;1.38;;;;;;;13.57;55.10;100162.63;6096211;23;20351;-80
2021/10/01 00:44:50;;;;;;;2.83;1.00;;;;;;;13.57;54.87;100157.34;6095669;23;20025;-80
2021/10/01 00:47:16;;;;;;;4.88;1.30;;;;;;;13.57;54.93;100152.06;6095952;23;20022;-80
2021/10/01 00:49:43;;;;;;;3.17;1.10;;;;;;;13.57;54.80;100154.72;6095797;23;20030;-79
2021/10/01 00:52:15;;;;;;;5.97;1.45;;;;;;;13.54;55.24;100153.09;6095730;23;20105;-80
2021/10/01 00:54:42;;;;;;;2.50;1.35;;;;;;;13.55;54.98;100159.25;6096573;23;20022;-79
2021/10/01 00:57:08;;;;;;;2.88;1.10;;;;;;;13.55;55.05;100153.97;6097972;23;20027;-80
2021/10/01 00:59:35;;;;;;;3.13;1.23;;;;;;;13.54;55.06;100147.81;6098070;23;20022;-79
2021/10/01 01:02:02;;;;;;;4.60;1.27;;;;;;;13.54;55.08;100145.16;6097655;23;20029;-79
2021/10/01 01:04:30;;;;;;;5.47;1.33;;;;;;;13.55;54.96;100148.69;6098065;23;20465;-80
2021/10/01 01:07:18;;;;;;;3.50;1.15;;;;;;;13.50;55.39;100142.84;6097944;23;20022;-79
2021/10/01 01:10:17;;;;;;;4.90;1.38;;;;;;;13.50;55.43;100143.66;6097881;23;20489;-80
2021/10/01 01:12:54;;;;;;;9.98;1.70;;;;;;;13.52;55.46;100140.94;6097506;23;20101;-79
2021/10/01 01:15:28;;;;;;;3.75;1.20;;;;;;;13.51;55.40;100131.31;6097484;23;20093;-80
2021/10/01 01:18:01;;;;;;;1.38;0.85;;;;;;;13.52;55.34;100146.22;6097216;23;20026;-80
2021/10/01 01:20:45;;;;;;;3.45;1.35;;;;;;;13.50;55.49;100130.44;6097647;23;20465;-79
2021/10/01 01:24:13;;;;;;;5.43;1.50;;;;;;;13.48;55.22;100116.47;6098614;23;20025;-79
2021/10/01 01:27:11;;;;;;;3.88;1.20;;;;;;;13.51;55.29;100120.72;6097861;23;20518;-80
2021/10/01 01:30:02;;;;;;;5.75;1.25;;;;;;;13.50;55.22;100111.94;6097788;23;20361;-79
2021/10/01 01:32:32;;;;;;;3.15;1.00;;;;;;;13.50;54.89;100113.75;6097893;23;20026;-79
2021/10/01 01:35:14;;;;;;;3.58;1.00;;;;;;;13.46;55.30;100109.56;6097125;23;20022;-79
2021/10/01 01:37:53;;;;;;;5.10;1.02;;;;;;;13.44;55.35;100104.38;6098224;23;20026;-79
2021/10/01 01:40:51;;;;;;;5.65;1.10;;;;;;;13.41;55.46;100108.06;6097189;23;20109;-80
2021/10/01 01:46:47;;;;;;;5.60;1.60;;;;;;;13.43;54.84;100097.38;6097215;23;20045;-80
2021/10/01 01:49:16;;;;;;;9.30;1.20;;;;;;;13.40;55.17;100102.88;6097289;23;20034;-80
2021/10/01 01:51:43;;;;;;;2.80;1.10;;;;;;;13.38;55.24;100113.53;6097560;23;20041;-80
2021/10/01 01:54:15;;;;;;;5.55;1.30;;;;;;;13.35;55.40;100107.59;6097057;23;20026;-80
2021/10/01 01:56:42;;;;;;;2.35;1.17;;;;;;;13.34;55.19;100108.56;6097605;23;20109;-80
2021/10/01 01:59:19;;;;;;;6.78;1.42;;;;;;;13.28;55.77;100109.78;6097842;23;20295;-80
2021/10/01 02:01:48;;;;;;;3.42;1.10;;;;;;;13.30;55.50;100102.59;6097457;23;20053;-80
2021/10/01 02:04:19;;;;;;;3.75;1.30;;;;;;;13.27;55.80;100102.81;6097151;23;20062;-80
2021/10/01 02:06:47;;;;;;;3.80;1.05;;;;;;;13.27;55.50;100110.75;6096781;23;20031;-80
2021/10/01 02:09:18;;;;;;;5.63;1.40;;;;;;;13.24;55.69;100098.53;6097547;23;20069;-80
2021/10/01 02:11:46;;;;;;;8.15;1.38;;;;;;;13.25;55.48;100099.41;6096654;23;20022;-80
2021/10/01 02:14:24;;;;;;;4.00;1.25;;;;;;;13.19;55.96;100095.34;6095706;23;20022;-80
2021/10/01 02:16:52;;;;;;;3.50;1.17;;;;;;;13.21;55.36;100100.53;6096774;23;20031;-80
2021/10/01 02:19:21;;;;;;;4.20;1.25;;;;;;;13.19;55.64;100097.16;6096968;23;20455;-80
2021/10/01 02:21:50;;;;;;;7.85;1.48;;;;;;;13.16;55.99;100087.63;6096828;23;20117;-80
2021/10/01 02:24:18;;;;;;;3.85;1.15;;;;;;;13.16;55.70;100084.97;6096936;23;20105;-80
2021/10/01 02:26:55;;;;;;;4.90;1.30;;;;;;;13.11;56.17;100082.59;6096687;23;20028;-80
2021/10/01 02:29:29;;;;;;;5.78;1.63;;;;;;;13.11;55.69;100079.09;6092749;23;20026;-80
2021/10/01 02:32:05;;;;;;;1.50;0.93;;;;;;;13.09;55.94;100079.19;6096940;23;20027;-80
2021/10/01 02:34:37;;;;;;;2.63;1.10;;;;;;;13.08;56.02;100080.16;6096645;23;20027;-80
2021/10/01 02:37:07;;;;;;;5.63;1.20;;;;;;;13.08;55.74;100072.22;6096674;23;20069;-80
2021/10/01 02:39:43;;;;;;;7.75;1.10;;;;;;;13.06;55.96;100076.78;6096528;23;20027;-80
2021/10/01 02:42:12;;;;;;;3.88;1.33;;;;;;;13.07;55.62;100070.53;6096928;23;20093;-80
2021/10/01 02:44:44;;;;;;;3.95;1.17;;;;;;;13.05;55.86;100072.44;6096732;23;20899;-80
2021/10/01 02:47:13;;;;;;;4.22;1.25;;;;;;;13.03;55.79;100064.59;6096636;23;20101;-80
2021/10/01 02:49:43;;;;;;;4.65;1.05;;;;;;;13.01;56.13;100066.47;6096844;23;20030;-80
2021/10/01 02:52:29;;;;;;;4.68;0.90;;;;;;;12.97;56.90;100056.19;6097319;23;20030;-80
2021/10/01 02:55:24;;;;;;;5.85;0.93;;;;;;;12.97;56.33;100051.75;6095800;23;20097;-80
2021/10/01 02:58:08;;;;;;;3.03;1.02;;;;;;;12.96;56.02;100042.13;6073577;23;20022;-80
2021/10/01 03:00:35;;;;;;;4.40;0.77;;;;;;;12.97;56.02;100043.00;6096530;23;20101;-80
2021/10/01 03:03:15;;;;;;;5.13;1.08;;;;;;;12.93;56.17;100037.03;6097229;23;20091;-80
2021/10/01 03:05:43;;;;;;;3.28;1.00;;;;;;;12.93;55.86;100031.75;6097557;23;20030;-80
2021/10/01 03:08:16;;;;;;;4.15;1.13;;;;;;;12.90;56.17;100029.31;6097160;23;20102;-80
2021/10/01 03:10:44;;;;;;;6.43;1.13;;;;;;;12.90;55.89;100026.69;6096573;23;20022;-80
2021/10/01 03:13:14;;;;;;;6.13;1.20;;;;;;;12.88;56.04;100023.25;6096005;23;20026;-80
2021/10/01 03:15:42;;;;;;;7.30;1.30;;;;;;;12.87;56.08;100027.69;6096138;23;20057;-80
2021/10/01 03:18:12;;;;;;;2.25;1.05;;;;;;;12.84;56.22;100019.97;6096230;23;20343;-80
2021/10/01 03:20:41;;;;;;;3.13;1.00;;;;;;;12.84;56.28;100019.13;6095623;23;20026;-80
2021/10/01 03:23:12;;;;;;;4.65;1.10;;;;;;;12.84;56.37;100012.06;6095897;23;20027;-80
2021/10/01 03:25:39;;;;;;;8.00;1.20;;;;;;;12.86;56.09;100006.69;6095572;23;20089;-80
2021/10/01 03:28:06;;;;;;;5.13;1.10;;;;;;;12.87;56.03;100011.84;6095704;23;20089;-80
2021/10/01 03:30:33;;;;;;;5.05;1.10;;;;;;;12.88;56.11;100018.84;6096188;23;20022;-80
2021/10/01 03:33:00;;;;;;;4.35;1.38;;;;;;;12.89;56.20;100009.97;6097903;23;20040;-81
2021/10/01 03:35:33;;;;;;;3.45;1.25;;;;;;;12.89;56.38;100004.69;6095475;23;20102;-80
2021/10/01 03:38:02;;;;;;;3.75;0.95;;;;;;;12.94;55.99;100007.03;6096973;23;20101;-80
2021/10/01 03:40:32;;;;;;;1.40;0.75;;;;;;;12.95;56.14;100011.38;6095599;23;20045;-80
2021/10/01 03:42:59;;;;;;;3.50;0.82;;;;;;;12.99;56.07;100015.53;6097295;23;20101;-80
2021/10/01 03:45:27;;;;;;;3.15;1.10;;;;;;;13.01;55.99;100013.63;6096110;23;20024;-80
2021/10/01 03:47:55;;;;;;;4.55;1.40;;;;;;;13.04;55.99;100009.94;6096316;23;20527;-80
2021/10/01 03:50:22;;;;;;;10.10;1.10;;;;;;;13.05;55.88;100005.50;6095952;23;20029;-80
2021/10/01 03:52:51;;;;;;;4.00;1.13;;;;;;;13.06;56.04;100002.78;6096378;23;20107;-80
2021/10/01 03:55:21;;;;;;;2.80;0.75;;;;;;;13.09;55.79;99994.63;6095791;23;20342;-80
2021/10/01 03:57:52;;;;;;;3.75;1.30;;;;;;;13.09;55.78;99999.09;6096299;23;20038;-80
2021/10/01 04:00:20;;;;;;;3.03;0.90;;;;;;;13.14;55.66;99994.34;6096266;23;20413;-80
2021/10/01 04:02:47;;;;;;;4.55;1.08;;;;;;;13.16;55.64;100005.69;6096326;23;20494;-80
2021/10/01 04:05:16;;;;;;;4.90;1.10;;;;;;;13.16;55.68;99989.81;6096048;23;20025;-80
2021/10/01 04:07:45;;;;;;;3.47;0.90;;;;;;;13.16;55.56;99990.66;6095847;23;20030;-80
2021/10/01 04:10:13;;;;;;;2.30;0.75;;;;;;;13.17;55.50;99991.50;6096338;23;20068;-80
2021/10/01 04:12:46;;;;;;;5.35;1.23;;;;;;;13.14;55.69;99982.00;6097696;23;20033;-80
2021/10/01 04:15:12;;;;;;;3.15;0.90;;;;;;;13.16;55.42;99982.72;6095595;23;20034;-80
2021/10/01 04:17:40;;;;;;;3.95;1.00;;;;;;;13.15;55.61;99980.16;6095688;23;20028;-80
2021/10/01 04:20:07;;;;;;;3.28;0.90;;;;;;;13.15;55.58;99983.69;6095439;23;20081;-80
2021/10/01 04:22:34;;;;;;;3.75;0.98;;;;;;;13.15;55.63;99978.38;6095680;23;20029;-80
2021/10/01 04:25:05;;;;;;;3.25;1.15;;;;;;;13.13;55.69;99980.28;6096081;23;20026;-80
2021/10/01 04:27:32;;;;;;;2.65;0.90;;;;;;;13.16;55.57;99982.72;6095359;23;20101;-80
2021/10/01 04:30:01;;;;;;;2.83;0.90;;;;;;;13.14;55.65;99982.00;6095789;23;20105;-80
2021/10/01 04:32:29;;;;;;;2.92;0.95;;;;;;;13.15;55.49;99978.38;6096052;23;20033;-80
2021/10/01 04:37:25;;;;;;;4.65;1.00;;;;;;;13.14;55.56;99966.13;6097956;23;20097;-80
2021/10/01 04:39:56;;;;;;;2.70;0.80;;;;;;;13.14;55.57;99975.84;6096061;23;20443;-80
2021/10/01 04:42:24;;;;;;;4.80;1.02;;;;;;;13.12;55.60;99970.66;6095743;23;20102;-80
2021/10/01 04:44:56;;;;;;;2.70;0.93;;;;;;;13.09;55.89;99968.19;6095801;23;20101;-80
2021/10/01 04:47:23;;;;;;;3.63;1.00;;;;;;;13.12;55.58;99965.38;6095986;23;20413;-80
2021/10/01 04:49:49;;;;;;;3.83;1.00;;;;;;;13.13;55.74;99966.22;6095528;23;20101;-80
2021/10/01 04:52:17;;;;;;;2.95;0.88;;;;;;;13.11;55.73;99961.03;6096106;23;20505;-80
2021/10/01 04:54:44;;;;;;;4.15;1.00;;;;;;;13.12;55.82;99968.00;6095687;23;20069;-80
2021/10/01 04:57:23;;;;;;;3.00;0.88;;;;;;;13.08;56.09;99957.75;6095857;23;20346;-80
2021/10/01 04:59:49;;;;;;;2.47;1.00;;;;;;;13.12;55.66;99951.31;6095852;23;20030;-80
2021/10/01 05:02:17;;;;;;;5.72;1.17;;;;;;;13.12;55.78;99953.97;6095456;23;20029;-80
2021/10/01 05:04:44;;;;;;;9.85;1.17;;;;;;;13.12;55.82;99952.16;6097477;23;20030;-80
2021/10/01 05:07:13;;;;;;;3.22;0.90;;;;;;;13.12;55.79;99941.56;6095852;23;20037;-80
2021/10/01 05:09:40;;;;;;;4.38;1.05;;;;;;;13.13;55.79;99932.69;6095622;23;20105;-80
2021/10/01 05:12:10;;;;;;;4.80;1.00;;;;;;;13.12;55.84;99941.56;6097482;23;20023;-80
2021/10/01 05:14:37;;;;;;;3.20;1.00;;;;;;;13.13;55.81;99937.97;6095035;23;20101;-80
2021/10/01 05:17:05;;;;;;;2.38;0.85;;;;;;;13.13;55.50;99935.34;6096024;23;20094;-80
2021/10/01 05:19:34;;;;;;;2.92;0.80;;;;;;;13.12;55.69;99930.19;6096148;23;20026;-80
2021/10/01 05:22:02;;;;;;;3.80;1.00;;;;;;;13.13;55.32;99935.34;6095632;23;20326;-80
2021/10/01 05:24:34;;;;;;;5.07;0.98;;;;;;;13.09;55.59;99931.19;6095237;23;20045;-80
2021/10/01 05:27:00;;;;;;;3.72;0.95;;;;;;;13.09;55.51;99933.84;6095800;23;20434;-80
2021/10/01 05:29:27;;;;;;;5.13;1.05;;;;;;;13.07;55.37;99943.69;6096088;23;20406;-80
2021/10/01 05:31:56;;;;;;;2.60;0.80;;;;;;;13.07;55.58;99948.97;6095688;23;20030;-80
2021/10/01 05:34:38;;;;;;;3.03;1.10;;;;;;;13.00;55.75;99947.66;6095596;23;20081;-80
2021/10/01 05:37:05;;;;;;;3.63;1.30;;;;;;;13.02;55.44;99948.41;6095831;23;20022;-83
2021/10/01 05:43:26;;;;;;;1.73;0.80;;;;;;;12.92;56.04;99950.78;6098521;23;20350;-83
2021/10/01 05:45:54;;;;;;;3.83;0.98;;;;;;;12.93;55.45;99943.72;6097456;23;20105;-83
2021/10/01 05:48:23;;;;;;;1.25;0.80;;;;;;;12.92;55.59;99942.00;6097693;23;20046;-83
2021/10/01 05:51:17;;;;;;;3.88;1.13;;;;;;;12.84;55.92;99945.16;6097163;23;20037;-83
2021/10/01 05:56:11;;;;;;;4.93;1.20;;;;;;;12.86;55.73;99945.91;6098831;23;20023;-84
2021/10/01 05:59:04;;;;;;;2.05;0.90;;;;;;;12.81;56.12;99945.34;6097218;23;20026;-84
2021/10/01 06:01:32;;;;;;;4.50;0.90;;;;;;;12.84;55.62;99943.38;6097096;23;20025;-83
2021/10/01 06:03:58;;;;;;;3.72;0.88;;;;;;;12.84;55.75;99943.38;6096950;23;20027;-83
2021/10/01 06:09:50;;;;;;;2.10;0.82;;;;;;;12.84;55.74;99939.88;6098187;23;20058;-83
2021/10/01 06:12:20;;;;;;;3.22;0.95;;;;;;;12.82;56.04;99949.69;6096833;23;20097;-83
2021/10/01 06:14:47;;;;;;;4.80;0.90;;;;;;;12.84;55.84;99947.78;6096428;23;20101;-83
2021/10/01 06:17:19;;;;;;;3.20;0.98;;;;;;;12.81;55.97;99943.56;6097506;23;20326;-83
2021/10/01 06:20:00;;;;;;;2.72;0.88;;;;;;;12.82;56.21;99947.06;6097058;23;20022;-83
2021/10/01 06:22:27;;;;;;;4.60;1.15;;;;;;;12.85;55.80;99950.34;6097065;23;20104;-83
2021/10/01 06:25:10;;;;;;;2.65;0.90;;;;;;;12.81;56.04;99948.84;6096561;23;20648;-83
2021/10/01 06:27:37;;;;;;;;;;;;;;;12.86;55.96;99943.28;6097790;23;20324;-83
2021/10/01 06:30:06;;;;;;;3.17;1.10;;;;;;;12.89;55.68;99949.19;6097216;23;19924;-83
2021/10/01 06:32:35;;;;;;;2.83;0.90;;;;;;;12.88;55.69;99954.56;6097090;23;20028;-83
2021/10/01 06:35:06;;;;;;;3.28;0.90;;;;;;;12.87;56.09;99950.25;6096653;23;20025;-83
2021/10/01 06:41:00;;;;;;;3.10;1.27;;;;;;;12.91;55.97;99949.09;6098095;23;20022;-83
2021/10/01 06:43:30;;;;;;;3.50;1.00;;;;;;;12.93;56.02;99946.38;6096770;23;20097;-83
2021/10/01 06:46:15;;;;;;;2.15;0.90;;;;;;;12.93;56.35;99944.56;6098126;23;20026;-83
2021/10/01 06:51:57;;;;;;;4.20;1.02;;;;;;;13.03;56.04;99950.97;6066038;23;20096;-83
2021/10/01 07:21:18;;;;;;;4.25;1.15;;;;;;;13.75;55.77;99932.28;6097454;23;20117;-84
2021/10/01 08:20:44;;;;;;;2.05;0.93;;;;;;;15.04;54.15;99928.63;6096938;23;20108;-84
2021/10/01 08:23:11;;;;;;;3.35;0.90;;;;;;;15.17;54.24;99920.63;6095948;23;20025;-83
2021/10/01 08:25:38;;;;;;;3.75;0.95;;;;;;;15.24;54.33;99932.47;6092801;23;20024;-83
2021/10/01 08:28:08;;;;;;;5.38;1.20;;;;;;;15.30;53.93;99925.88;6095537;23;20029;-83
2021/10/01 08:30:36;;;;;;;3.08;1.02;;;;;;;15.40;54.17;99920.69;6095983;23;20066;-83
2021/10/01 08:33:28;;;;;;;6.30;1.45;;;;;;;15.44;53.72;99924.81;6096110;23;20053;-84
2021/10/01 08:36:12;;;;;;;3.78;0.85;;;;;;;15.52;53.51;99908.34;6094861;23;20029;-84
2021/10/01 08:38:39;;;;;;;6.18;1.35;;;;;;;15.63;53.73;99910.19;6096144;23;20450;-84
2021/10/01 08:41:14;;;;;;;1.80;0.80;;;;;;;15.65;53.34;99902.94;6095774;23;20324;-84
2021/10/01 08:43:43;;;;;;;2.47;0.90;;;;;;;15.72;53.41;99904.16;6095203;23;20018;-83
2021/10/01 08:46:15;;;;;;;3.80;1.15;;;;;;;15.75;53.24;99898.59;6095830;23;20018;-83
2021/10/01 08:48:44;;;;;;;5.20;0.90;;;;;;;15.83;53.30;99898.03;6096030;23;20462;-81
2021/10/01 08:51:20;;;;;;;2.63;1.05;;;;;;;15.85;53.23;99912.03;6095747;23;20120;-81
2021/10/01 08:53:52;;;;;;;3.03;0.98;;;;;;;15.94;53.24;99891.94;6096750;23;20026;-81
2021/10/01 08:56:20;;;;;;;3.15;0.82;;;;;;;16.00;53.27;99902.06;6095453;23;20026;-81
2021/10/01 08:59:26;;;;;;;2.88;1.13;;;;;;;16.03;53.18;99895.66;6096117;23;20101;-81
2021/10/01 09:01:52;;;;;;;4.75;1.38;;;;;;;16.15;52.82;99893.88;6096057;23;20333;-82
2021/10/01 09:04:21;;;;;;;3.78;1.00;;;;;;;16.21;52.71;99895.19;6095412;23;20030;-81
2021/10/01 09:06:49;;;;;;;4.60;0.90;;;;;;;16.27;52.77;99889.41;6095653;23;20018;-82
2021/10/01 09:09:40;;;;;;;4.22;1.15;;;;;;;16.30;52.34;99890.97;6096976;23;20028;-81
2021/10/01 09:12:08;;;;;;;4.85;1.10;;;;;;;16.40;52.29;99874.19;6095643;23;20022;-81
2021/10/01 09:15:01;;;;;;;3.95;1.05;;;;;;;16.44;51.48;99877.44;6095903;23;20109;-81
2021/10/01 09:17:30;;;;;;;;;;;;;;;16.56;52.01;99870.28;6098053;23;20074;-81
2021/10/01 09:19:59;;;;;;;2.95;1.02;;;;;;;16.65;50.42;99877.53;6097145;23;19923;-82
2021/10/01 09:22:31;;;;;;;3.47;1.10;;;;;;;16.72;50.44;99869.03;6098045;23;20029;-81
2021/10/01 09:25:09;;;;;;;6.85;1.42;;;;;;;16.77;49.84;99873.03;6097293;23;20023;-82
2021/10/01 09:27:38;;;;;;;4.60;1.33;;;;;;;16.91;51.02;99879.03;6097467;23;20029;-82
2021/10/01 09:30:07;;;;;;;4.43;1.05;;;;;;;16.99;50.54;99865.94;6097800;23;20350;-82
2021/10/01 09:33:11;;;;;;;3.45;1.30;;;;;;;17.05;50.47;99867.28;6097220;23;20029;-82
2021/10/01 09:35:39;;;;;;;4.43;1.25;;;;;;;17.22;50.54;99871.19;6097320;23;20117;-82
2021/10/01 09:38:14;;;;;;;4.25;1.15;;;;;;;17.28;49.10;99867.19;6097704;23;20510;-82
2021/10/01 09:40:43;;;;;;;8.85;1.30;;;;;;;17.37;48.85;99877.06;6097773;23;20037;-81
2021/10/01 09:43:32;;;;;;;3.08;1.48;;;;;;;17.45;49.11;99865.75;6098966;23;20350;-82
2021/10/01 09:46:03;;;;;;;2.75;1.15;;;;;;;17.56;48.94;99870.16;6097181;23;20105;-82
2021/10/01 09:48:47;;;;;;;7.40;1.63;;;;;;;17.62;47.48;99868.81;6097688;23;20037;-82
2021/10/01 09:51:55;;;;;;;4.45;1.23;;;;;;;17.68;48.22;99853.16;6097206;23;20345;-82
2021/10/01 09:54:24;;;;;;;4.20;0.82;;;;;;;17.82;49.02;99862.63;6097548;23;20026;-82
2021/10/01 09:57:06;;;;;;;5.65;1.20;;;;;;;17.86;48.18;99851.72;6097046;23;20022;-82
2021/10/01 09:59:35;;;;;;;10.00;1.20;;;;;;;17.96;48.64;99856.13;6097538;23;20022;-81
2021/10/01 10:02:13;;;;;;;4.50;1.23;;;;;;;18.03;48.91;99853.75;6097482;23;20022;-82
2021/10/01 10:05:07;;;;;;;3.05;1.08;;;;;;;18.15;47.18;99849.19;6097140;23;20341;-82
2021/10/01 10:07:39;;;;;;;3.20;1.00;;;;;;;18.30;47.80;99843.50;6093280;23;20514;-82
2021/10/01 10:10:08;;;;;;;6.32;1.45;;;;;;;18.40;47.64;99843.53;6096785;23;20030;-82
2021/10/01 10:12:39;;;;;;;2.63;0.93;;;;;;;18.48;47.17;99841.88;6097106;23;20058;-82
2021/10/01 10:15:14;;;;;;;2.67;1.20;;;;;;;18.54;46.98;99843.13;6096776;23;20109;-82
2021/10/01 10:17:51;;;;;;;2.95;1.20;;;;;;;18.61;47.52;99833.59;6097026;23;20058;-82
2021/10/01 10:20:30;;;;;;;3.92;1.25;;;;;;;18.67;47.53;99826.88;6097239;23;20466;-81
2021/10/01 10:22:57;;;;;;;5.35;1.10;;;;;;;18.78;47.36;99831.25;6096836;23;20030;-82
2021/10/01 10:25:23;;;;;;;4.13;1.13;;;;;;;18.85;47.84;99821.72;6096614;23;20026;-82
2021/10/01 10:27:59;;;;;;;6.78;1.48;;;;;;;18.91;46.77;99820.28;6096415;23;20514;-82
2021/10/01 10:30:26;;;;;;;2.38;0.95;;;;;;;19.08;48.23;99820.59;6096527;23;20101;-82
2021/10/01 10:33:23;;;;;;;7.35;1.20;;;;;;;19.19;46.11;99817.78;6096676;23;20028;-82
2021/10/01 10:35:50;;;;;;;3.47;1.10;;;;;;;19.38;47.22;99822.25;6096085;23;20101;-82
2021/10/01 10:38:53;;;;;;;4.13;1.10;;;;;;;19.47;45.22;99817.03;6096592;23;20036;-82
2021/10/01 10:41:23;;;;;;;4.50;1.15;;;;;;;19.62;46.23;99815.56;6094386;23;20034;-82
2021/10/01 10:44:38;;;;;;;3.95;0.90;;;;;;;19.65;45.44;99812.63;6096313;23;20101;-82
2021/10/01 10:47:05;;;;;;;4.72;1.15;;;;;;;19.75;46.13;99803.75;6096750;23;20029;-82
2021/10/01 10:49:31;;;;;;;4.32;1.00;;;;;;;19.78;46.24;99811.47;6097001;23;20413;-82
2021/10/01 10:55:10;;;;;;;4.05;1.38;;;;;;;19.79;45.44;99810.47;6097234;23;20041;-82
2021/10/01 10:57:37;;;;;;;3.67;0.90;;;;;;;19.85;45.95;99795.69;6097906;23;20098;-82
2021/10/01 11:00:31;;;;;;;4.70;1.33;;;;;;;19.82;45.51;99802.19;6096556;23;20110;-82
2021/10/01 11:03:21;;;;;;;2.80;0.90;;;;;;;19.83;45.85;99792.31;6096365;23;20049;-82
2021/10/01 11:06:09;;;;;;;3.85;0.90;;;;;;;19.84;45.07;99794.84;6096726;23;20413;-82
2021/10/01 11:08:39;;;;;;;2.17;1.00;;;;;;;19.90;44.80;99810.28;6096479;23;20082;-82
2021/10/01 11:11:42;;;;;;;2.80;0.90;;;;;;;19.90;45.27;99788.94;6096574;23;20383;-82
2021/10/01 11:14:15;;;;;;;13.52;2.13;;;;;;;20.00;44.98;99790.75;6096546;23;20120;-82
2021/10/01 11:16:43;;;;;;;1.85;1.00;;;;;;;20.10;45.67;99790.66;6096718;23;20022;-82
2021/10/01 11:19:10;;;;;;;5.60;1.27;;;;;;;20.16;45.46;99782.91;6096402;23;20026;-82
2021/10/01 11:22:00;;;;;;;7.75;1.05;;;;;;;20.26;44.21;99782.00;6096239;23;20018;-82
2021/10/01 11:24:27;;;;;;;2.42;1.13;;;;;;;20.57;46.72;99779.81;6096091;23;20105;-82
2021/10/01 11:26:59;;;;;;;2.97;1.00;;;;;;;20.94;46.26;99771.81;6120873;23;20468;-82
2021/10/01 11:29:39;;;;;;;7.60;1.15;;;;;;;21.41;45.80;99772.47;6096279;23;20022;-82
2021/10/01 11:32:25;;;;;;;5.07;0.93;;;;;;;22.00;43.82;99750.31;6097705;23;20076;-82
2021/10/01 11:34:54;;;;;;;3.53;0.80;;;;;;;22.60;44.43;99761.03;6096000;23;20105;-82
2021/10/01 11:37:27;;;;;;;3.83;0.90;;;;;;;23.02;42.44;99757.34;6095821;23;20032;-82
2021/10/01 11:40:21;;;;;;;5.97;1.20;;;;;;;23.28;40.18;99763.50;6096189;23;20032;-82
2021/10/01 11:42:50;;;;;;;4.32;1.20;;;;;;;23.38;40.35;99753.47;6096116;23;20022;-82
2021/10/01 11:45:21;;;;;;;2.80;0.80;;;;;;;23.30;39.11;99759.66;6096344;23;20065;-82
2021/10/01 11:47:56;;;;;;;3.65;1.13;;;;;;;23.17;39.39;99760.19;6096576;23;20030;-82
2021/10/01 11:50:53;;;;;;;4.07;1.20;;;;;;;23.00;40.21;99743.28;6096076;23;20127;-82
2021/10/01 11:53:22;;;;;;;3.05;1.00;;;;;;;23.05;41.79;99745.44;6096115;23;20105;-82
2021/10/01 11:55:51;;;;;;;3.42;1.00;;;;;;;23.11;40.96;99743.91;6095717;23;20069;-82
2021/10/01 11:58:37;;;;;;;2.88;0.85;;;;;;;23.15;41.07;99740.75;6096500;23;20022;-82
2021/10/01 12:01:15;;;;;;;2.28;0.80;;;;;;;23.25;39.88;99743.22;6096517;23;20056;-82
2021/10/01 12:03:50;;;;;;;2.88;1.02;;;;;;;23.29;39.54;99736.50;6072173;23;20061;-82
2021/10/01 12:06:21;;;;;;;3.65;1.30;;;;;;;23.30;38.70;99743.53;6095998;23;20033;-82
2021/10/01 12:09:08;;;;;;;2.72;0.90;;;;;;;23.24;37.69;99736.19;6096277;23;20438;-82
2021/10/01 12:11:38;;;;;;;3.00;1.27;;;;;;;23.32;39.65;99729.94;6095882;23;20030;-82
2021/10/01 12:14:56;;;;;;;3.35;1.00;;;;;;;23.47;37.37;99713.16;6095818;23;20030;-82
2021/10/01 12:17:23;;;;;;;4.45;1.02;;;;;;;23.86;40.27;99698.88;6097659;23;20458;-82
2021/10/01 12:20:13;;;;;;;3.00;0.98;;;;;;;24.07;38.97;99706.31;6096355;23;20500;-82
2021/10/01 12:22:42;;;;;;;2.35;0.80;;;;;;;24.25;38.05;99693.63;6095581;23;20022;-82
2021/10/01 12:25:09;;;;;;;3.08;1.20;;;;;;;24.28;38.39;99701.31;6095688;23;20062;-82
2021/10/01 12:27:40;;;;;;;3.00;0.95;;;;;;;24.25;37.85;99696.31;6096328;23;20022;-82
2021/10/01 12:30:14;;;;;;;3.25;0.75;;;;;;;24.16;37.62;99695.53;6095913;23;20027;-82
2021/10/01 12:32:41;;;;;;;2.78;1.00;;;;;;;24.12;37.52;99691.53;6096323;23;20430;-82
2021/10/01 12:35:32;;;;;;;2.75;1.10;;;;;;;23.97;35.31;99699.47;6095566;23;20072;-82
2021/10/01 12:37:58;;;;;;;3.03;0.93;;;;;;;24.02;38.23;99686.34;6095818;23;20040;-82
2021/10/01 12:41:03;;;;;;;2.53;0.98;;;;;;;24.05;38.92;99686.00;6096164;23;20093;-82
2021/10/01 12:43:50;;;;;;;5.15;1.08;;;;;;;24.24;38.04;99673.13;6095650;23;20102;-82
2021/10/01 12:47:11;;;;;;;3.25;0.95;;;;;;;24.32;38.72;99671.22;6096258;23;20018;-82
2021/10/01 12:49:38;;;;;;;5.63;1.00;;;;;;;24.36;37.20;99673.53;6014201;23;20046;-81
2021/10/01 12:52:12;;;;;;;3.45;1.05;;;;;;;24.20;36.44;99667.25;6091796;23;20466;-82
2021/10/01 12:54:50;;;;;;;3.38;1.00;;;;;;;24.02;37.35;99671.06;6097858;23;20054;-82
2021/10/01 12:57:29;;;;;;;1.75;1.00;;;;;;;23.84;37.07;99657.06;6098133;23;20397;-82
2021/10/01 13:00:07;;;;;;;3.83;1.27;;;;;;;23.68;37.31;99651.59;6097985;23;20409;-82
2021/10/01 13:03:04;;;;;;;6.63;1.15;;;;;;;23.61;38.21;99661.38;6099476;23;20501;-81
2021/10/01 13:05:43;;;;;;;3.75;1.00;;;;;;;23.52;37.37;99655.19;6097755;23;20390;-82
2021/10/01 13:08:15;;;;;;;2.33;0.82;;;;;;;23.46;37.26;99661.28;6097968;23;20022;-82
2021/10/01 13:11:25;;;;;;;2.93;1.00;;;;;;;23.36;37.17;99666.03;6097962;23;20019;-82
2021/10/01 13:13:52;;;;;;;6.07;1.20;;;;;;;23.37;37.64;99659.63;6097446;23;20030;-82
2021/10/01 13:16:52;;;;;;;3.67;0.93;;;;;;;23.24;37.24;99654.75;6097426;23;20032;-82
2021/10/01 13:19:22;;;;;;;2.20;0.95;;;;;;;23.20;37.60;99656.97;6098072;23;20371;-82
2021/10/01 13:25:52;;;;;;;4.13;1.10;;;;;;;22.86;36.48;99650.00;6098781;23;20021;-82
2021/10/01 13:28:21;;;;;;;2.25;0.75;;;;;;;22.80;37.75;99651.53;6097843;23;20353;-82
2021/10/01 13:30:50;;;;;;;2.80;0.77;;;;;;;22.67;37.37;99651.22;6097964;23;20415;-82
2021/10/01 13:33:32;;;;;;;2.55;1.10;;;;;;;22.51;37.33;99645.66;6097944;23;20514;-82
2021/10/01 13:35:59;;;;;;;2.22;0.88;;;;;;;22.45;37.90;99638.28;6096851;23;20057;-82
2021/10/01 13:38:39;;;;;;;1.48;0.80;;;;;;;22.30;37.69;99648.00;6097411;23;20029;-82
2021/10/01 13:41:09;;;;;;;2.10;1.10;;;;;;;22.21;37.32;99650.69;6097451;23;20052;-82
2021/10/01 13:43:40;;;;;;;4.90;1.17;;;;;;;22.08;37.80;99642.28;6097195;23;20023;-82
2021/10/01 13:46:09;;;;;;;2.95;0.93;;;;;;;22.02;38.37;99637.59;6097258;23;20117;-82
2021/10/01 13:48:36;;;;;;;2.97;0.90;;;;;;;21.96;38.40;99637.28;6097575;23;20026;-82
2021/10/01 13:51:04;;;;;;;3.10;1.25;;;;;;;21.93;38.55;99632.22;6098925;23;20346;-82
2021/10/01 13:53:31;;;;;;;3.03;0.90;;;;;;;21.91;38.42;99644.97;6098256;23;20443;-82
2021/10/01 13:55:58;;;;;;;4.68;0.98;;;;;;;21.89;38.83;99622.84;6097430;23;20026;-82